sensor_id;sensor_type;location;lat;lon;timestamp;P1;durP1;ratioP1;P2;durP2;ratioP2
35917;SDS011;22011;59.912;30.300;2022-07-24T00:00:12;10.80;;;9.52;;
35917;SDS011;22011;59.912;30.300;2022-07-24T00:02:41;12.25;;;9.15;;
35917;SDS011;22011;59.912;30.300;2022-07-24T00:05:09;12.18;;;9.82;;
35917;SDS011;22011;59.912;30.300;2022-07-24T00:07:37;13.02;;;9.18;;
35917;SDS011;22011;59.912;30.300;2022-07-24T00:10:05;12.38;;;8.80;;
35917;SDS011;22011;59.912;30.300;2022-07-24T00:12:34;11.23;;;8.63;;
35917;SDS011;22011;59.912;30.300;2022-07-24T00:15:02;11.07;;;9.88;;
35917;SDS011;22011;59.912;30.300;2022-07-24T00:17:30;10.00;;;8.80;;
35917;SDS011;22011;59.912;30.300;2022-07-24T00:19:59;12.50;;;8.88;;
35917;SDS011;22011;59.912;30.300;2022-07-24T00:22:27;12.10;;;9.80;;
35917;SDS011;22011;59.912;30.300;2022-07-24T00:24:54;10.48;;;9.23;;
35917;SDS011;22011;59.912;30.300;2022-07-24T00:27:22;10.35;;;9.07;;
35917;SDS011;22011;59.912;30.300;2022-07-24T00:29:49;11.05;;;8.32;;
35917;SDS011;22011;59.912;30.300;2022-07-24T00:32:17;12.35;;;9.27;;
35917;SDS011;22011;59.912;30.300;2022-07-24T00:34:45;9.80;;;8.38;;
35917;SDS011;22011;59.912;30.300;2022-07-24T00:37:14;9.85;;;8.70;;
35917;SDS011;22011;59.912;30.300;2022-07-24T00:39:41;9.88;;;8.98;;
35917;SDS011;22011;59.912;30.300;2022-07-24T00:42:10;10.50;;;9.43;;
35917;SDS011;22011;59.912;30.300;2022-07-24T00:44:38;10.88;;;9.02;;
35917;SDS011;22011;59.912;30.300;2022-07-24T00:47:06;10.68;;;9.10;;
35917;SDS011;22011;59.912;30.300;2022-07-24T00:49:33;10.80;;;9.05;;
35917;SDS011;22011;59.912;30.300;2022-07-24T00:52:01;12.52;;;9.10;;
35917;SDS011;22011;59.912;30.300;2022-07-24T00:54:30;9.52;;;8.20;;
35917;SDS011;22011;59.912;30.300;2022-07-24T00:56:58;10.57;;;8.73;;
35917;SDS011;22011;59.912;30.300;2022-07-24T00:59:25;8.93;;;7.95;;
35917;SDS011;22011;59.912;30.300;2022-07-24T01:01:53;7.95;;;7.13;;
35917;SDS011;22011;59.912;30.300;2022-07-24T01:04:20;9.65;;;8.73;;
35917;SDS011;22011;59.912;30.300;2022-07-24T01:06:48;7.72;;;6.88;;
35917;SDS011;22011;59.912;30.300;2022-07-24T01:09:16;11.48;;;8.50;;
35917;SDS011;22011;59.912;30.300;2022-07-24T01:11:46;9.40;;;7.68;;
35917;SDS011;22011;59.912;30.300;2022-07-24T01:14:14;9.98;;;8.57;;
35917;SDS011;22011;59.912;30.300;2022-07-24T01:16:42;11.05;;;8.45;;
35917;SDS011;22011;59.912;30.300;2022-07-24T01:19:10;14.15;;;8.57;;
35917;SDS011;22011;59.912;30.300;2022-07-24T01:21:39;11.88;;;7.90;;
35917;SDS011;22011;59.912;30.300;2022-07-24T01:24:12;12.32;;;7.97;;
35917;SDS011;22011;59.912;30.300;2022-07-24T01:26:39;8.50;;;7.28;;
35917;SDS011;22011;59.912;30.300;2022-07-24T01:29:07;9.45;;;8.05;;
35917;SDS011;22011;59.912;30.300;2022-07-24T01:31:35;12.45;;;8.43;;
35917;SDS011;22011;59.912;30.300;2022-07-24T01:34:03;9.05;;;8.02;;
35917;SDS011;22011;59.912;30.300;2022-07-24T01:36:31;9.57;;;8.50;;
35917;SDS011;22011;59.912;30.300;2022-07-24T01:39:00;9.57;;;8.57;;
35917;SDS011;22011;59.912;30.300;2022-07-24T01:41:28;9.13;;;8.27;;
35917;SDS011;22011;59.912;30.300;2022-07-24T01:43:56;11.45;;;8.38;;
35917;SDS011;22011;59.912;30.300;2022-07-24T01:46:23;10.07;;;8.98;;
35917;SDS011;22011;59.912;30.300;2022-07-24T01:48:51;10.13;;;8.50;;
35917;SDS011;22011;59.912;30.300;2022-07-24T01:51:19;9.02;;;8.15;;
35917;SDS011;22011;59.912;30.300;2022-07-24T01:53:47;10.63;;;7.90;;
35917;SDS011;22011;59.912;30.300;2022-07-24T01:56:16;8.68;;;7.88;;
35917;SDS011;22011;59.912;30.300;2022-07-24T01:58:44;11.75;;;8.35;;
35917;SDS011;22011;59.912;30.300;2022-07-24T02:01:11;8.93;;;8.02;;
35917;SDS011;22011;59.912;30.300;2022-07-24T02:03:39;10.88;;;8.57;;
35917;SDS011;22011;59.912;30.300;2022-07-24T02:06:07;8.50;;;7.70;;
35917;SDS011;22011;59.912;30.300;2022-07-24T02:08:34;9.82;;;8.27;;
35917;SDS011;22011;59.912;30.300;2022-07-24T02:11:02;9.88;;;8.80;;
35917;SDS011;22011;59.912;30.300;2022-07-24T02:13:31;9.48;;;8.52;;
35917;SDS011;22011;59.912;30.300;2022-07-24T02:15:59;9.43;;;7.95;;
35917;SDS011;22011;59.912;30.300;2022-07-24T02:18:27;9.35;;;8.27;;
35917;SDS011;22011;59.912;30.300;2022-07-24T02:20:54;9.98;;;8.68;;
35917;SDS011;22011;59.912;30.300;2022-07-24T02:23:22;9.43;;;8.43;;
35917;SDS011;22011;59.912;30.300;2022-07-24T02:25:50;9.40;;;8.20;;
35917;SDS011;22011;59.912;30.300;2022-07-24T02:28:18;10.43;;;8.25;;
35917;SDS011;22011;59.912;30.300;2022-07-24T02:30:47;8.30;;;7.38;;
35917;SDS011;22011;59.912;30.300;2022-07-24T02:33:15;9.02;;;7.97;;
35917;SDS011;22011;59.912;30.300;2022-07-24T02:35:42;9.48;;;8.48;;
35917;SDS011;22011;59.912;30.300;2022-07-24T02:38:10;11.07;;;8.07;;
35917;SDS011;22011;59.912;30.300;2022-07-24T02:40:38;10.80;;;8.00;;
35917;SDS011;22011;59.912;30.300;2022-07-24T02:43:05;9.15;;;7.57;;
35917;SDS011;22011;59.912;30.300;2022-07-24T02:45:33;9.02;;;8.13;;
35917;SDS011;22011;59.912;30.300;2022-07-24T02:48:02;8.65;;;7.50;;
35917;SDS011;22011;59.912;30.300;2022-07-24T02:50:33;10.13;;;7.65;;
35917;SDS011;22011;59.912;30.300;2022-07-24T02:53:04;7.90;;;6.75;;
35917;SDS011;22011;59.912;30.300;2022-07-24T02:55:32;8.80;;;7.30;;
35917;SDS011;22011;59.912;30.300;2022-07-24T02:58:00;8.70;;;7.80;;
35917;SDS011;22011;59.912;30.300;2022-07-24T03:00:27;9.00;;;8.10;;
35917;SDS011;22011;59.912;30.300;2022-07-24T03:02:55;10.48;;;7.30;;
35917;SDS011;22011;59.912;30.300;2022-07-24T03:05:24;8.70;;;7.90;;
35917;SDS011;22011;59.912;30.300;2022-07-24T03:07:51;8.60;;;7.60;;
35917;SDS011;22011;59.912;30.300;2022-07-24T03:10:19;9.80;;;7.85;;
35917;SDS011;22011;59.912;30.300;2022-07-24T03:12:47;9.73;;;7.57;;
35917;SDS011;22011;59.912;30.300;2022-07-24T03:15:14;9.40;;;7.70;;
35917;SDS011;22011;59.912;30.300;2022-07-24T03:17:47;8.20;;;7.40;;
35917;SDS011;22011;59.912;30.300;2022-07-24T03:20:16;10.15;;;7.80;;
35917;SDS011;22011;59.912;30.300;2022-07-24T03:22:45;10.48;;;7.75;;
35917;SDS011;22011;59.912;30.300;2022-07-24T03:25:14;8.35;;;7.63;;
35917;SDS011;22011;59.912;30.300;2022-07-24T03:27:41;8.50;;;7.53;;
35917;SDS011;22011;59.912;30.300;2022-07-24T03:30:10;8.40;;;7.57;;
35917;SDS011;22011;59.912;30.300;2022-07-24T03:32:38;7.03;;;6.32;;
35917;SDS011;22011;59.912;30.300;2022-07-24T03:35:06;10.32;;;7.57;;
35917;SDS011;22011;59.912;30.300;2022-07-24T03:37:34;8.60;;;7.05;;
35917;SDS011;22011;59.912;30.300;2022-07-24T03:40:04;8.73;;;7.28;;
35917;SDS011;22011;59.912;30.300;2022-07-24T03:42:32;9.75;;;7.43;;
35917;SDS011;22011;59.912;30.300;2022-07-24T03:45:00;8.38;;;6.78;;
35917;SDS011;22011;59.912;30.300;2022-07-24T03:47:27;7.97;;;7.20;;
35917;SDS011;22011;59.912;30.300;2022-07-24T03:49:55;8.50;;;7.15;;
35917;SDS011;22011;59.912;30.300;2022-07-24T03:52:23;7.85;;;7.05;;
35917;SDS011;22011;59.912;30.300;2022-07-24T03:54:50;7.68;;;6.88;;
35917;SDS011;22011;59.912;30.300;2022-07-24T03:57:20;9.07;;;6.50;;
35917;SDS011;22011;59.912;30.300;2022-07-24T03:59:47;8.02;;;7.22;;
35917;SDS011;22011;59.912;30.300;2022-07-24T04:02:15;8.38;;;7.07;;
35917;SDS011;22011;59.912;30.300;2022-07-24T04:04:42;7.82;;;6.90;;
35917;SDS011;22011;59.912;30.300;2022-07-24T04:07:10;7.28;;;6.60;;
35917;SDS011;22011;59.912;30.300;2022-07-24T04:09:37;7.57;;;6.68;;
35917;SDS011;22011;59.912;30.300;2022-07-24T04:12:06;7.53;;;6.78;;
35917;SDS011;22011;59.912;30.300;2022-07-24T04:14:35;7.88;;;6.28;;
35917;SDS011;22011;59.912;30.300;2022-07-24T04:17:03;9.98;;;7.38;;
35917;SDS011;22011;59.912;30.300;2022-07-24T04:19:30;7.63;;;6.95;;
35917;SDS011;22011;59.912;30.300;2022-07-24T04:21:58;7.22;;;6.53;;
35917;SDS011;22011;59.912;30.300;2022-07-24T04:24:25;7.95;;;6.93;;
35917;SDS011;22011;59.912;30.300;2022-07-24T04:26:53;6.72;;;5.97;;
35917;SDS011;22011;59.912;30.300;2022-07-24T04:29:20;8.48;;;6.93;;
35917;SDS011;22011;59.912;30.300;2022-07-24T04:31:49;7.13;;;6.20;;
35917;SDS011;22011;59.912;30.300;2022-07-24T04:34:17;7.55;;;6.75;;
35917;SDS011;22011;59.912;30.300;2022-07-24T04:36:44;10.32;;;7.43;;
35917;SDS011;22011;59.912;30.300;2022-07-24T04:39:12;8.98;;;7.25;;
35917;SDS011;22011;59.912;30.300;2022-07-24T04:41:40;9.95;;;7.40;;
35917;SDS011;22011;59.912;30.300;2022-07-24T04:44:08;9.40;;;6.85;;
35917;SDS011;22011;59.912;30.300;2022-07-24T04:46:35;9.07;;;7.75;;
35917;SDS011;22011;59.912;30.300;2022-07-24T04:49:04;7.15;;;6.40;;
35917;SDS011;22011;59.912;30.300;2022-07-24T04:51:32;8.60;;;7.00;;
35917;SDS011;22011;59.912;30.300;2022-07-24T04:53:59;7.47;;;6.78;;
35917;SDS011;22011;59.912;30.300;2022-07-24T04:56:27;8.32;;;6.78;;
35917;SDS011;22011;59.912;30.300;2022-07-24T04:58:57;8.07;;;6.80;;
35917;SDS011;22011;59.912;30.300;2022-07-24T05:01:25;7.82;;;7.03;;
35917;SDS011;22011;59.912;30.300;2022-07-24T05:03:52;8.52;;;7.07;;
35917;SDS011;22011;59.912;30.300;2022-07-24T05:08:51;6.60;;;5.78;;
35917;SDS011;22011;59.912;30.300;2022-07-24T05:11:18;11.10;;;6.65;;
35917;SDS011;22011;59.912;30.300;2022-07-24T05:13:46;7.30;;;6.22;;
35917;SDS011;22011;59.912;30.300;2022-07-24T05:16:13;7.07;;;6.35;;
35917;SDS011;22011;59.912;30.300;2022-07-24T05:18:41;7.72;;;5.88;;
35917;SDS011;22011;59.912;30.300;2022-07-24T05:21:08;7.55;;;6.75;;
35917;SDS011;22011;59.912;30.300;2022-07-24T05:23:37;10.57;;;6.82;;
35917;SDS011;22011;59.912;30.300;2022-07-24T05:26:05;6.75;;;6.15;;
35917;SDS011;22011;59.912;30.300;2022-07-24T05:28:33;9.05;;;6.57;;
35917;SDS011;22011;59.912;30.300;2022-07-24T05:31:00;7.63;;;6.85;;
35917;SDS011;22011;59.912;30.300;2022-07-24T05:33:28;8.70;;;6.93;;
35917;SDS011;22011;59.912;30.300;2022-07-24T05:35:55;9.38;;;6.80;;
35917;SDS011;22011;59.912;30.300;2022-07-24T05:38:23;7.93;;;6.78;;
35917;SDS011;22011;59.912;30.300;2022-07-24T05:40:52;8.38;;;7.38;;
35917;SDS011;22011;59.912;30.300;2022-07-24T05:43:21;8.32;;;7.53;;
35917;SDS011;22011;59.912;30.300;2022-07-24T05:45:48;8.48;;;6.75;;
35917;SDS011;22011;59.912;30.300;2022-07-24T05:48:16;9.93;;;7.28;;
35917;SDS011;22011;59.912;30.300;2022-07-24T05:50:43;7.55;;;6.85;;
35917;SDS011;22011;59.912;30.300;2022-07-24T05:53:11;9.80;;;6.82;;
35917;SDS011;22011;59.912;30.300;2022-07-24T05:55:39;8.95;;;8.07;;
35917;SDS011;22011;59.912;30.300;2022-07-24T05:58:07;8.80;;;6.97;;
35917;SDS011;22011;59.912;30.300;2022-07-24T06:00:35;10.60;;;6.87;;
35917;SDS011;22011;59.912;30.300;2022-07-24T06:03:03;8.43;;;7.57;;
35917;SDS011;22011;59.912;30.300;2022-07-24T06:05:31;9.98;;;8.65;;
35917;SDS011;22011;59.912;30.300;2022-07-24T06:07:58;10.82;;;7.38;;
35917;SDS011;22011;59.912;30.300;2022-07-24T06:10:26;8.23;;;7.35;;
35917;SDS011;22011;59.912;30.300;2022-07-24T06:12:53;10.27;;;7.55;;
35917;SDS011;22011;59.912;30.300;2022-07-24T06:15:22;7.78;;;6.97;;
35917;SDS011;22011;59.912;30.300;2022-07-24T06:17:50;6.93;;;6.32;;
35917;SDS011;22011;59.912;30.300;2022-07-24T06:20:18;8.18;;;7.15;;
35917;SDS011;22011;59.912;30.300;2022-07-24T06:22:45;7.88;;;7.07;;
35917;SDS011;22011;59.912;30.300;2022-07-24T06:25:13;7.05;;;6.35;;
35917;SDS011;22011;59.912;30.300;2022-07-24T06:27:41;7.13;;;6.43;;
35917;SDS011;22011;59.912;30.300;2022-07-24T06:30:11;7.03;;;6.30;;
35917;SDS011;22011;59.912;30.300;2022-07-24T06:32:41;8.13;;;6.15;;
35917;SDS011;22011;59.912;30.300;2022-07-24T06:35:10;10.25;;;5.40;;
35917;SDS011;22011;59.912;30.300;2022-07-24T06:37:37;5.65;;;5.13;;
35917;SDS011;22011;59.912;30.300;2022-07-24T06:40:05;5.90;;;4.95;;
35917;SDS011;22011;59.912;30.300;2022-07-24T06:42:33;7.03;;;5.68;;
35917;SDS011;22011;59.912;30.300;2022-07-24T06:45:01;8.68;;;5.60;;
35917;SDS011;22011;59.912;30.300;2022-07-24T06:47:29;8.45;;;4.88;;
35917;SDS011;22011;59.912;30.300;2022-07-24T06:49:58;5.50;;;4.95;;
35917;SDS011;22011;59.912;30.300;2022-07-24T06:52:25;5.37;;;4.63;;
35917;SDS011;22011;59.912;30.300;2022-07-24T06:54:53;5.72;;;4.95;;
35917;SDS011;22011;59.912;30.300;2022-07-24T06:57:20;8.13;;;5.97;;
35917;SDS011;22011;59.912;30.300;2022-07-24T06:59:48;7.03;;;5.03;;
35917;SDS011;22011;59.912;30.300;2022-07-24T07:02:18;6.35;;;5.07;;
35917;SDS011;22011;59.912;30.300;2022-07-24T07:04:46;10.13;;;5.60;;
35917;SDS011;22011;59.912;30.300;2022-07-24T07:07:15;5.22;;;4.60;;
35917;SDS011;22011;59.912;30.300;2022-07-24T07:09:43;7.40;;;5.82;;
35917;SDS011;22011;59.912;30.300;2022-07-24T07:12:11;7.38;;;5.25;;
35917;SDS011;22011;59.912;30.300;2022-07-24T07:14:38;6.00;;;5.47;;
35917;SDS011;22011;59.912;30.300;2022-07-24T07:17:06;105.03;;;14.68;;
35917;SDS011;22011;59.912;30.300;2022-07-24T07:19:34;47.70;;;10.10;;
35917;SDS011;22011;59.912;30.300;2022-07-24T07:22:01;70.22;;;11.48;;
35917;SDS011;22011;59.912;30.300;2022-07-24T07:24:30;70.10;;;11.25;;
35917;SDS011;22011;59.912;30.300;2022-07-24T07:26:58;29.13;;;7.73;;
35917;SDS011;22011;59.912;30.300;2022-07-24T07:29:25;14.13;;;6.68;;
35917;SDS011;22011;59.912;30.300;2022-07-24T07:31:53;7.15;;;6.40;;
35917;SDS011;22011;59.912;30.300;2022-07-24T07:34:21;9.73;;;6.47;;
35917;SDS011;22011;59.912;30.300;2022-07-24T07:36:48;6.93;;;6.13;;
35917;SDS011;22011;59.912;30.300;2022-07-24T07:39:16;8.07;;;6.07;;
35917;SDS011;22011;59.912;30.300;2022-07-24T07:41:45;9.10;;;6.82;;
35917;SDS011;22011;59.912;30.300;2022-07-24T07:44:13;8.60;;;6.53;;
35917;SDS011;22011;59.912;30.300;2022-07-24T07:46:40;8.90;;;6.40;;
35917;SDS011;22011;59.912;30.300;2022-07-24T07:49:08;8.50;;;6.18;;
35917;SDS011;22011;59.912;30.300;2022-07-24T07:51:35;8.07;;;6.63;;
35917;SDS011;22011;59.912;30.300;2022-07-24T07:54:03;6.60;;;5.90;;
35917;SDS011;22011;59.912;30.300;2022-07-24T07:56:30;9.50;;;6.47;;
35917;SDS011;22011;59.912;30.300;2022-07-24T07:58:59;10.30;;;6.88;;
35917;SDS011;22011;59.912;30.300;2022-07-24T08:01:27;8.03;;;6.43;;
35917;SDS011;22011;59.912;30.300;2022-07-24T08:03:55;7.63;;;6.50;;
35917;SDS011;22011;59.912;30.300;2022-07-24T08:06:22;10.45;;;8.98;;
35917;SDS011;22011;59.912;30.300;2022-07-24T08:08:50;8.93;;;7.65;;
35917;SDS011;22011;59.912;30.300;2022-07-24T08:11:17;9.68;;;8.02;;
35917;SDS011;22011;59.912;30.300;2022-07-24T08:13:45;7.70;;;6.80;;
35917;SDS011;22011;59.912;30.300;2022-07-24T08:16:14;8.80;;;7.40;;
35917;SDS011;22011;59.912;30.300;2022-07-24T08:18:42;10.32;;;7.30;;
35917;SDS011;22011;59.912;30.300;2022-07-24T08:21:10;8.35;;;7.55;;
35917;SDS011;22011;59.912;30.300;2022-07-24T08:23:38;8.70;;;7.40;;
35917;SDS011;22011;59.912;30.300;2022-07-24T08:26:05;9.73;;;6.85;;
35917;SDS011;22011;59.912;30.300;2022-07-24T08:28:33;8.48;;;7.05;;
35917;SDS011;22011;59.912;30.300;2022-07-24T08:31:00;9.82;;;6.65;;
35917;SDS011;22011;59.912;30.300;2022-07-24T08:33:29;10.20;;;6.78;;
35917;SDS011;22011;59.912;30.300;2022-07-24T08:35:57;11.23;;;6.67;;
35917;SDS011;22011;59.912;30.300;2022-07-24T08:38:24;10.00;;;7.25;;
35917;SDS011;22011;59.912;30.300;2022-07-24T08:40:52;8.45;;;6.50;;
35917;SDS011;22011;59.912;30.300;2022-07-24T08:43:19;8.27;;;6.63;;
35917;SDS011;22011;59.912;30.300;2022-07-24T08:45:47;6.82;;;6.10;;
35917;SDS011;22011;59.912;30.300;2022-07-24T08:48:16;8.45;;;6.88;;
35917;SDS011;22011;59.912;30.300;2022-07-24T08:50:49;8.43;;;6.78;;
35917;SDS011;22011;59.912;30.300;2022-07-24T08:55:46;7.43;;;6.10;;
35917;SDS011;22011;59.912;30.300;2022-07-24T08:58:13;11.15;;;6.85;;
35917;SDS011;22011;59.912;30.300;2022-07-24T09:00:41;12.15;;;6.88;;
35917;SDS011;22011;59.912;30.300;2022-07-24T09:03:09;8.35;;;7.15;;
35917;SDS011;22011;59.912;30.300;2022-07-24T09:05:53;10.68;;;6.70;;
35917;SDS011;22011;59.912;30.300;2022-07-24T09:08:21;10.25;;;5.97;;
35917;SDS011;22011;59.912;30.300;2022-07-24T09:10:59;7.43;;;6.72;;
35917;SDS011;22011;59.912;30.300;2022-07-24T09:13:30;7.78;;;6.65;;
35917;SDS011;22011;59.912;30.300;2022-07-24T09:16:19;7.05;;;6.22;;
35917;SDS011;22011;59.912;30.300;2022-07-24T09:18:49;8.23;;;6.90;;
35917;SDS011;22011;59.912;30.300;2022-07-24T09:21:19;7.73;;;6.43;;
35917;SDS011;22011;59.912;30.300;2022-07-24T09:23:47;9.30;;;6.83;;
35917;SDS011;22011;59.912;30.300;2022-07-24T09:26:14;7.25;;;6.55;;
35917;SDS011;22011;59.912;30.300;2022-07-24T09:28:46;7.50;;;6.30;;
35917;SDS011;22011;59.912;30.300;2022-07-24T09:31:15;7.15;;;5.82;;
35917;SDS011;22011;59.912;30.300;2022-07-24T09:33:43;9.25;;;5.28;;
35917;SDS011;22011;59.912;30.300;2022-07-24T09:36:11;13.25;;;5.57;;
35917;SDS011;22011;59.912;30.300;2022-07-24T09:38:43;4.53;;;4.13;;
35917;SDS011;22011;59.912;30.300;2022-07-24T09:41:18;5.68;;;4.55;;
35917;SDS011;22011;59.912;30.300;2022-07-24T09:43:55;7.45;;;4.97;;
35917;SDS011;22011;59.912;30.300;2022-07-24T09:46:25;5.35;;;4.65;;
35917;SDS011;22011;59.912;30.300;2022-07-24T09:48:54;6.05;;;4.80;;
35917;SDS011;22011;59.912;30.300;2022-07-24T09:51:23;5.28;;;4.72;;
35917;SDS011;22011;59.912;30.300;2022-07-24T09:53:54;7.13;;;4.53;;
35917;SDS011;22011;59.912;30.300;2022-07-24T09:56:23;4.55;;;4.13;;
35917;SDS011;22011;59.912;30.300;2022-07-24T09:58:52;7.55;;;4.40;;
35917;SDS011;22011;59.912;30.300;2022-07-24T10:01:22;3.90;;;3.50;;
35917;SDS011;22011;59.912;30.300;2022-07-24T10:03:51;5.20;;;3.70;;
35917;SDS011;22011;59.912;30.300;2022-07-24T10:06:22;4.32;;;3.90;;
35917;SDS011;22011;59.912;30.300;2022-07-24T10:08:53;4.70;;;4.25;;
35917;SDS011;22011;59.912;30.300;2022-07-24T10:11:22;7.30;;;4.63;;
35917;SDS011;22011;59.912;30.300;2022-07-24T10:13:50;7.22;;;4.55;;
35917;SDS011;22011;59.912;30.300;2022-07-24T10:16:29;4.85;;;4.15;;
35917;SDS011;22011;59.912;30.300;2022-07-24T10:18:58;6.30;;;4.63;;
35917;SDS011;22011;59.912;30.300;2022-07-24T10:21:27;7.30;;;3.90;;
35917;SDS011;22011;59.912;30.300;2022-07-24T10:24:07;5.85;;;4.72;;
35917;SDS011;22011;59.912;30.300;2022-07-24T10:26:44;5.07;;;4.40;;
35917;SDS011;22011;59.912;30.300;2022-07-24T10:29:15;5.93;;;4.68;;
35917;SDS011;22011;59.912;30.300;2022-07-24T10:31:46;5.30;;;4.65;;
35917;SDS011;22011;59.912;30.300;2022-07-24T10:34:15;9.40;;;5.30;;
35917;SDS011;22011;59.912;30.300;2022-07-24T10:36:54;5.07;;;4.57;;
35917;SDS011;22011;59.912;30.300;2022-07-24T10:39:35;5.18;;;4.75;;
35917;SDS011;22011;59.912;30.300;2022-07-24T10:42:06;7.40;;;4.85;;
35917;SDS011;22011;59.912;30.300;2022-07-24T10:44:33;5.20;;;4.70;;
35917;SDS011;22011;59.912;30.300;2022-07-24T10:47:03;5.20;;;4.70;;
35917;SDS011;22011;59.912;30.300;2022-07-24T10:49:34;4.95;;;4.32;;
35917;SDS011;22011;59.912;30.300;2022-07-24T10:52:02;5.32;;;3.80;;
35917;SDS011;22011;59.912;30.300;2022-07-24T10:54:30;5.40;;;4.20;;
35917;SDS011;22011;59.912;30.300;2022-07-24T10:56:59;7.13;;;4.10;;
35917;SDS011;22011;59.912;30.300;2022-07-24T10:59:33;6.35;;;4.90;;
35917;SDS011;22011;59.912;30.300;2022-07-24T11:11:01;5.85;;;3.50;;
35917;SDS011;22011;59.912;30.300;2022-07-24T11:13:40;5.97;;;3.58;;
35917;SDS011;22011;59.912;30.300;2022-07-24T11:16:25;5.35;;;3.25;;
35917;SDS011;22011;59.912;30.300;2022-07-24T11:22:10;3.95;;;2.75;;
35917;SDS011;22011;59.912;30.300;2022-07-24T11:24:41;3.60;;;3.30;;
35917;SDS011;22011;59.912;30.300;2022-07-24T11:27:37;6.20;;;3.28;;
35917;SDS011;22011;59.912;30.300;2022-07-24T11:30:19;4.07;;;2.97;;
35917;SDS011;22011;59.912;30.300;2022-07-24T11:32:47;4.13;;;3.30;;
35917;SDS011;22011;59.912;30.300;2022-07-24T11:35:15;4.75;;;2.97;;
35917;SDS011;22011;59.912;30.300;2022-07-24T11:37:42;4.65;;;3.20;;
35917;SDS011;22011;59.912;30.300;2022-07-24T11:40:15;4.53;;;3.05;;
35917;SDS011;22011;59.912;30.300;2022-07-24T11:42:43;4.47;;;3.60;;
35917;SDS011;22011;59.912;30.300;2022-07-24T11:45:11;4.03;;;3.22;;
35917;SDS011;22011;59.912;30.300;2022-07-24T11:47:40;6.55;;;3.10;;
35917;SDS011;22011;59.912;30.300;2022-07-24T11:50:08;5.32;;;3.30;;
35917;SDS011;22011;59.912;30.300;2022-07-24T11:52:37;5.03;;;3.30;;
35917;SDS011;22011;59.912;30.300;2022-07-24T11:55:07;5.35;;;3.53;;
35917;SDS011;22011;59.912;30.300;2022-07-24T11:57:37;4.85;;;3.40;;
35917;SDS011;22011;59.912;30.300;2022-07-24T12:00:07;4.20;;;3.42;;
35917;SDS011;22011;59.912;30.300;2022-07-24T12:02:45;4.28;;;2.95;;
35917;SDS011;22011;59.912;30.300;2022-07-24T12:05:13;3.97;;;3.45;;
35917;SDS011;22011;59.912;30.300;2022-07-24T12:07:50;7.10;;;4.63;;
35917;SDS011;22011;59.912;30.300;2022-07-24T12:10:18;4.43;;;3.42;;
35917;SDS011;22011;59.912;30.300;2022-07-24T12:12:48;4.47;;;3.22;;
35917;SDS011;22011;59.912;30.300;2022-07-24T12:15:16;7.75;;;3.92;;
35917;SDS011;22011;59.912;30.300;2022-07-24T12:17:56;9.63;;;4.15;;
35917;SDS011;22011;59.912;30.300;2022-07-24T12:20:25;4.93;;;3.85;;
35917;SDS011;22011;59.912;30.300;2022-07-24T12:22:55;6.50;;;4.38;;
35917;SDS011;22011;59.912;30.300;2022-07-24T12:25:24;4.43;;;3.90;;
35917;SDS011;22011;59.912;30.300;2022-07-24T12:28:02;6.60;;;4.70;;
35917;SDS011;22011;59.912;30.300;2022-07-24T12:30:32;8.43;;;3.88;;
35917;SDS011;22011;59.912;30.300;2022-07-24T12:33:03;6.15;;;4.60;;
35917;SDS011;22011;59.912;30.300;2022-07-24T12:35:33;5.75;;;4.07;;
35917;SDS011;22011;59.912;30.300;2022-07-24T12:38:02;4.57;;;3.50;;
35917;SDS011;22011;59.912;30.300;2022-07-24T12:40:31;6.63;;;4.22;;
35917;SDS011;22011;59.912;30.300;2022-07-24T12:43:03;9.70;;;3.65;;
35917;SDS011;22011;59.912;30.300;2022-07-24T12:45:34;5.40;;;4.35;;
35917;SDS011;22011;59.912;30.300;2022-07-24T12:48:07;5.85;;;3.83;;
35917;SDS011;22011;59.912;30.300;2022-07-24T12:51:01;5.47;;;4.00;;
35917;SDS011;22011;59.912;30.300;2022-07-24T12:53:31;5.28;;;3.92;;
35917;SDS011;22011;59.912;30.300;2022-07-24T12:56:11;5.15;;;4.25;;
35917;SDS011;22011;59.912;30.300;2022-07-24T12:58:49;4.30;;;3.78;;
35917;SDS011;22011;59.912;30.300;2022-07-24T13:01:18;5.35;;;3.83;;
35917;SDS011;22011;59.912;30.300;2022-07-24T13:03:52;4.88;;;3.75;;
35917;SDS011;22011;59.912;30.300;2022-07-24T13:06:31;5.30;;;3.60;;
35917;SDS011;22011;59.912;30.300;2022-07-24T13:09:00;6.97;;;3.90;;
35917;SDS011;22011;59.912;30.300;2022-07-24T13:11:28;6.00;;;4.07;;
35917;SDS011;22011;59.912;30.300;2022-07-24T13:13:55;5.78;;;3.70;;
35917;SDS011;22011;59.912;30.300;2022-07-24T13:16:25;5.85;;;3.90;;
35917;SDS011;22011;59.912;30.300;2022-07-24T13:18:55;5.43;;;3.45;;
35917;SDS011;22011;59.912;30.300;2022-07-24T13:21:23;6.07;;;4.20;;
35917;SDS011;22011;59.912;30.300;2022-07-24T13:23:50;4.65;;;3.95;;
35917;SDS011;22011;59.912;30.300;2022-07-24T13:26:18;4.45;;;3.90;;
35917;SDS011;22011;59.912;30.300;2022-07-24T13:28:46;6.15;;;3.72;;
35917;SDS011;22011;59.912;30.300;2022-07-24T13:31:14;6.40;;;3.63;;
35917;SDS011;22011;59.912;30.300;2022-07-24T13:33:43;5.07;;;3.28;;
35917;SDS011;22011;59.912;30.300;2022-07-24T13:36:11;4.70;;;3.97;;
35917;SDS011;22011;59.912;30.300;2022-07-24T13:38:39;5.53;;;4.60;;
35917;SDS011;22011;59.912;30.300;2022-07-24T13:41:07;4.50;;;4.07;;
35917;SDS011;22011;59.912;30.300;2022-07-24T13:43:34;7.65;;;4.00;;
35917;SDS011;22011;59.912;30.300;2022-07-24T13:46:02;4.15;;;3.67;;
35917;SDS011;22011;59.912;30.300;2022-07-24T13:48:31;4.30;;;3.72;;
35917;SDS011;22011;59.912;30.300;2022-07-24T13:50:58;8.02;;;4.35;;
35917;SDS011;22011;59.912;30.300;2022-07-24T13:53:27;6.38;;;4.70;;
35917;SDS011;22011;59.912;30.300;2022-07-24T13:55:55;5.47;;;4.07;;
35917;SDS011;22011;59.912;30.300;2022-07-24T13:58:22;5.88;;;4.28;;
35917;SDS011;22011;59.912;30.300;2022-07-24T14:00:50;7.95;;;4.32;;
35917;SDS011;22011;59.912;30.300;2022-07-24T14:03:18;7.28;;;4.30;;
35917;SDS011;22011;59.912;30.300;2022-07-24T14:05:45;9.07;;;4.90;;
35917;SDS011;22011;59.912;30.300;2022-07-24T14:08:13;8.25;;;4.43;;
35917;SDS011;22011;59.912;30.300;2022-07-24T14:10:42;6.88;;;4.70;;
35917;SDS011;22011;59.912;30.300;2022-07-24T14:13:09;8.67;;;4.23;;
35917;SDS011;22011;59.912;30.300;2022-07-24T14:15:37;5.95;;;5.05;;
35917;SDS011;22011;59.912;30.300;2022-07-24T14:18:04;6.63;;;4.75;;
35917;SDS011;22011;59.912;30.300;2022-07-24T14:20:32;8.38;;;4.95;;
35917;SDS011;22011;59.912;30.300;2022-07-24T14:23:00;9.88;;;5.00;;
35917;SDS011;22011;59.912;30.300;2022-07-24T14:25:28;6.20;;;5.05;;
35917;SDS011;22011;59.912;30.300;2022-07-24T14:27:56;6.47;;;5.05;;
35917;SDS011;22011;59.912;30.300;2022-07-24T14:30:24;4.97;;;4.47;;
35917;SDS011;22011;59.912;30.300;2022-07-24T14:32:52;6.35;;;4.80;;
35917;SDS011;22011;59.912;30.300;2022-07-24T14:35:19;6.80;;;4.80;;
35917;SDS011;22011;59.912;30.300;2022-07-24T14:37:47;9.02;;;4.28;;
35917;SDS011;22011;59.912;30.300;2022-07-24T14:40:14;11.30;;;5.03;;
35917;SDS011;22011;59.912;30.300;2022-07-24T14:42:42;9.05;;;5.28;;
35917;SDS011;22011;59.912;30.300;2022-07-24T14:45:11;6.78;;;4.75;;
35917;SDS011;22011;59.912;30.300;2022-07-24T14:47:39;5.23;;;4.67;;
35917;SDS011;22011;59.912;30.300;2022-07-24T14:50:07;7.97;;;4.97;;
35917;SDS011;22011;59.912;30.300;2022-07-24T14:52:36;6.07;;;4.40;;
35917;SDS011;22011;59.912;30.300;2022-07-24T14:55:04;6.22;;;4.90;;
35917;SDS011;22011;59.912;30.300;2022-07-24T14:57:33;4.95;;;4.38;;